Parma — V2OZ9 — position and weather

sailwx.info

Track history (hours):
 
Tides and Currents Weather Stations Pressure Air Temp Water Temp Dewpoint Dewpoint Depression Visibility Wind Speed Wind Dir Waves Ship Positions

Parma

Last reported at 2015-Jul-04 15:33 UTC. Time now 2015-Jul-07 00:19 UTC.
Position N 43°21' W 001°56'.

MMSI: 279073176.

Date/timePositionNaut miles runAvg speedWind from/ knotsBaromVisibWave heightAir tempDewpointWater temp
2015-Jul-04 15:33N 43°21' W 001°56'1 0.0
2015-Jul-03 16:10N 43°22' W 001°56'148 8.9
2015-Jul-02 23:33N 43°40' W 005°18'10 9.3
2015-Jul-02 22:32N 43°40' W 005°31'9 9.4
2015-Jul-02 21:32N 43°41' W 005°44'10 9.5
2015-Jul-02 20:30N 43°43' W 005°58'311 7.1
2015-Jul-01 00:27N 39°24' W 009°50'9 9.6
2015-Jun-30 23:33N 39°16' W 009°50'9 9.2
2015-Jun-30 22:33N 39°07' W 009°50'9 9.2
2015-Jun-30 21:33N 38°57' W 009°50'9 9.1
2015-Jun-30 20:33N 38°48' W 009°51'9 9.0
2015-Jun-30 19:33N 38°39' W 009°49'9 9.0
2015-Jun-30 18:33N 38°31' W 009°47'9 8.8
2015-Jun-30 17:33N 38°22' W 009°44'9 9.0
2015-Jun-30 16:33N 38°13' W 009°41'18 8.8
2015-Jun-30 14:32N 37°56' W 009°36'9 9.1
2015-Jun-30 13:33N 37°47' W 009°34'9 9.4
2015-Jun-30 12:32N 37°38' W 009°31'9 9.0
2015-Jun-30 11:33N 37°29' W 009°28'9 8.8
2015-Jun-30 10:33N 37°21' W 009°26'9 8.9
2015-Jun-30 09:33N 37°12' W 009°23'18 9.0
2015-Jun-30 07:33N 36°54' W 009°18'9 8.9
2015-Jun-30 06:33N 36°48' W 009°11'9 8.9
2015-Jun-30 05:33N 36°43' W 009°02'9 9.1
2015-Jun-30 04:33N 36°40' W 008°51'9 9.0
2015-Jun-30 03:33N 36°37' W 008°40'9 9.0
2015-Jun-30 02:33N 36°35' W 008°30'9 9.0
2015-Jun-30 01:32N 36°32' W 008°19'9 9.0
2015-Jun-30 00:30N 36°29' W 008°08'9 9.1
2015-Jun-29 23:32N 36°26' W 007°57'11 9.3
2015-Jun-29 22:22N 36°23' W 007°44'8 9.5
2015-Jun-29 21:33N 36°20' W 007°35'9 9.3
2015-Jun-29 20:33N 36°18' W 007°24'10 9.5
2015-Jun-29 19:33N 36°14' W 007°13'86 8.4
2015-Jun-29 09:15N 35°59' W 005°28'5 7.4
2015-Jun-29 08:33N 35°58' W 005°22'4 4.3
2015-Jun-29 07:32N 35°54' W 005°19'0 0.0
2015-Jun-29 06:32N 35°54' W 005°19'0 0.0
2015-Jun-29 05:32N 35°54' W 005°19'0 0.0
2015-Jun-29 04:32N 35°54' W 005°19'0 0.0
2015-Jun-29 03:32N 35°54' W 005°19'1 0.5
2015-Jun-29 02:33N 35°54' W 005°19'4 3.6
2015-Jun-29 01:33N 35°56' W 005°15'131 8.6
2015-Jun-28 10:14N 36°22' W 002°36'8 9.7
2015-Jun-28 09:28N 36°23' W 002°27'80 9.7
2015-Jun-28 01:13N 37°01' W 000°59'10 9.5
2015-Jun-28 00:13N 37°07' W 000°49'6 9.7
2015-Jun-27 23:33N 37°10' W 000°42'11 9.4
2015-Jun-27 22:20N 37°16' W 000°30'7 9.6
2015-Jun-27 21:33N 37°20' W 000°22'10 9.6
2015-Jun-27 20:33N 37°25' W 000°12'10 9.9
2015-Jun-27 19:33N 37°30' W 000°01'9 9.1
2015-Jun-27 18:33N 37°35' E 000°09'9 9.0
2015-Jun-27 17:33N 37°40' E 000°18'9 9.0
2015-Jun-27 16:33N 37°44' E 000°28'9 8.7
2015-Jun-27 15:33N 37°49' E 000°37'9 8.8
2015-Jun-27 14:33N 37°54' E 000°47'9 8.9
2015-Jun-27 13:33N 37°58' E 000°56'9 9.0
2015-Jun-27 12:33N 38°03' E 001°06'9 8.9
2015-Jun-27 11:32N 38°08' E 001°16'9 8.8
2015-Jun-27 10:33N 38°13' E 001°25'9 8.8
2015-Jun-27 09:33N 38°17' E 001°34'9 8.8
2015-Jun-27 08:32N 38°22' E 001°44'13 8.9
2015-Jun-27 07:04N 38°29' E 001°58'5 9.2
2015-Jun-27 06:33N 38°31' E 002°03'10 9.5
2015-Jun-27 05:32N 38°37' E 002°14'10 9.7
2015-Jun-27 04:33N 38°41' E 002°24'10 9.8
2015-Jun-27 03:33N 38°47' E 002°34'10 9.7
2015-Jun-27 02:33N 38°52' E 002°45'10 9.6
2015-Jun-27 01:33N 38°57' E 002°56'10 9.7
2015-Jun-27 00:33N 39°02' E 003°06'10 9.8
2015-Jun-26 23:33N 39°07' E 003°17'10 9.7
2015-Jun-26 22:33N 39°12' E 003°28'10 9.8
2015-Jun-26 21:33N 39°18' E 003°39'10 9.6
2015-Jun-26 20:33N 39°23' E 003°49'10 9.3
2015-Jun-26 19:31N 39°27' E 003°60'46 9.3
2015-Jun-26 14:33N 39°51' E 004°52'88 8.8
2015-Jun-26 04:32N 40°33' E 006°33'10 9.4
2015-Jun-26 03:31N 40°38' E 006°44'9 9.4
2015-Jun-26 02:32N 40°42' E 006°55'9 9.3
2015-Jun-26 01:34N 40°46' E 007°05'50 9.6
2015-Jun-25 20:20N 41°10' E 008°03'7 9.3
2015-Jun-25 19:33N 41°13' E 008°12'  
Track history (hours):
 
Tides and Currents Weather Stations Pressure Air Temp Water Temp Dewpoint Dewpoint Depression Visibility Wind Speed Wind Dir Waves Ship Positions

Parma

Last reported at 2015-Jul-04 15:33 UTC. Time now 2015-Jul-07 00:19 UTC.
Position N 43°21' W 001°56'.

MMSI: 279073176.

Date/timePositionNaut miles runAvg speedWind from/ knotsBaromVisibWave heightAir tempDewpointWater temp
2015-Jul-04 15:33N 43°21' W 001°56'1 0.0
2015-Jul-03 16:10N 43°22' W 001°56'148 8.9
2015-Jul-02 23:33N 43°40' W 005°18'10 9.3
2015-Jul-02 22:32N 43°40' W 005°31'9 9.4
2015-Jul-02 21:32N 43°41' W 005°44'10 9.5
2015-Jul-02 20:30N 43°43' W 005°58'311 7.1
2015-Jul-01 00:27N 39°24' W 009°50'9 9.6
2015-Jun-30 23:33N 39°16' W 009°50'9 9.2
2015-Jun-30 22:33N 39°07' W 009°50'9 9.2
2015-Jun-30 21:33N 38°57' W 009°50'9 9.1
2015-Jun-30 20:33N 38°48' W 009°51'9 9.0
2015-Jun-30 19:33N 38°39' W 009°49'9 9.0
2015-Jun-30 18:33N 38°31' W 009°47'9 8.8
2015-Jun-30 17:33N 38°22' W 009°44'9 9.0
2015-Jun-30 16:33N 38°13' W 009°41'18 8.8
2015-Jun-30 14:32N 37°56' W 009°36'9 9.1
2015-Jun-30 13:33N 37°47' W 009°34'9 9.4
2015-Jun-30 12:32N 37°38' W 009°31'9 9.0
2015-Jun-30 11:33N 37°29' W 009°28'9 8.8
2015-Jun-30 10:33N 37°21' W 009°26'9 8.9
2015-Jun-30 09:33N 37°12' W 009°23'18 9.0
2015-Jun-30 07:33N 36°54' W 009°18'9 8.9
2015-Jun-30 06:33N 36°48' W 009°11'9 8.9
2015-Jun-30 05:33N 36°43' W 009°02'9 9.1
2015-Jun-30 04:33N 36°40' W 008°51'9 9.0
2015-Jun-30 03:33N 36°37' W 008°40'9 9.0
2015-Jun-30 02:33N 36°35' W 008°30'9 9.0
2015-Jun-30 01:32N 36°32' W 008°19'9 9.0
2015-Jun-30 00:30N 36°29' W 008°08'9 9.1
2015-Jun-29 23:32N 36°26' W 007°57'11 9.3
2015-Jun-29 22:22N 36°23' W 007°44'8 9.5
2015-Jun-29 21:33N 36°20' W 007°35'9 9.3
2015-Jun-29 20:33N 36°18' W 007°24'10 9.5
2015-Jun-29 19:33N 36°14' W 007°13'86 8.4
2015-Jun-29 09:15N 35°59' W 005°28'5 7.4
2015-Jun-29 08:33N 35°58' W 005°22'4 4.3
2015-Jun-29 07:32N 35°54' W 005°19'0 0.0
2015-Jun-29 06:32N 35°54' W 005°19'0 0.0
2015-Jun-29 05:32N 35°54' W 005°19'0 0.0
2015-Jun-29 04:32N 35°54' W 005°19'0 0.0
2015-Jun-29 03:32N 35°54' W 005°19'1 0.5
2015-Jun-29 02:33N 35°54' W 005°19'4 3.6
2015-Jun-29 01:33N 35°56' W 005°15'131 8.6
2015-Jun-28 10:14N 36°22' W 002°36'8 9.7
2015-Jun-28 09:28N 36°23' W 002°27'80 9.7
2015-Jun-28 01:13N 37°01' W 000°59'10 9.5
2015-Jun-28 00:13N 37°07' W 000°49'6 9.7
2015-Jun-27 23:33N 37°10' W 000°42'11 9.4
2015-Jun-27 22:20N 37°16' W 000°30'7 9.6
2015-Jun-27 21:33N 37°20' W 000°22'10 9.6
2015-Jun-27 20:33N 37°25' W 000°12'10 9.9
2015-Jun-27 19:33N 37°30' W 000°01'9 9.1
2015-Jun-27 18:33N 37°35' E 000°09'9 9.0
2015-Jun-27 17:33N 37°40' E 000°18'9 9.0
2015-Jun-27 16:33N 37°44' E 000°28'9 8.7
2015-Jun-27 15:33N 37°49' E 000°37'9 8.8
2015-Jun-27 14:33N 37°54' E 000°47'9 8.9
2015-Jun-27 13:33N 37°58' E 000°56'9 9.0
2015-Jun-27 12:33N 38°03' E 001°06'9 8.9
2015-Jun-27 11:32N 38°08' E 001°16'9 8.8
2015-Jun-27 10:33N 38°13' E 001°25'9 8.8
2015-Jun-27 09:33N 38°17' E 001°34'9 8.8
2015-Jun-27 08:32N 38°22' E 001°44'13 8.9
2015-Jun-27 07:04N 38°29' E 001°58'5 9.2
2015-Jun-27 06:33N 38°31' E 002°03'10 9.5
2015-Jun-27 05:32N 38°37' E 002°14'10 9.7
2015-Jun-27 04:33N 38°41' E 002°24'10 9.8
2015-Jun-27 03:33N 38°47' E 002°34'10 9.7
2015-Jun-27 02:33N 38°52' E 002°45'10 9.6
2015-Jun-27 01:33N 38°57' E 002°56'10 9.7
2015-Jun-27 00:33N 39°02' E 003°06'10 9.8
2015-Jun-26 23:33N 39°07' E 003°17'10 9.7
2015-Jun-26 22:33N 39°12' E 003°28'10 9.8
2015-Jun-26 21:33N 39°18' E 003°39'10 9.6
2015-Jun-26 20:33N 39°23' E 003°49'10 9.3
2015-Jun-26 19:31N 39°27' E 003°60'46 9.3
2015-Jun-26 14:33N 39°51' E 004°52'88 8.8
2015-Jun-26 04:32N 40°33' E 006°33'10 9.4
2015-Jun-26 03:31N 40°38' E 006°44'9 9.4
2015-Jun-26 02:32N 40°42' E 006°55'9 9.3
2015-Jun-26 01:34N 40°46' E 007°05'50 9.6
2015-Jun-25 20:20N 41°10' E 008°03'7 9.3
2015-Jun-25 19:33N 41°13' E 008°12'  

Dump ship's entire track history